Observations for SOUTHEND-ON-SEA, United Kingdom (EGMC)

EGMC 130850Z 12013KT 9999 FEW035 02/M03 Q1018   
EGMC 130820Z 12013KT 9999 FEW035 03/M01 Q1018   
EGMC 130750Z 11013KT 9999 FEW035 04/M00 Q1018   
EGMC 130720Z 11012KT CAVOK 03/00 Q1017  
EGMC 130650Z 11012KT CAVOK 04/01 Q1017  
EGMC 130620Z 11013KT CAVOK 04/M00 Q1017 
EGMC 130550Z 13012KT CAVOK 03/M00 Q1017 
EGMC 130520Z 12011KT CAVOK 03/M00 Q1018 
EGMC 130450Z 14013KT CAVOK 03/M00 Q1018 
EGMC 130350Z 12013KT CAVOK 04/M00 Q1018 
EGMC 130320Z 11012KT CAVOK 03/M00 Q1018 
EGMC 130220Z 11015KT CAVOK 03/M00 Q1019 
EGMC 130120Z 13010KT CAVOK 04/M00 Q1019 
EGMC 130020Z 12010KT CAVOK 04/00 Q1020  
EGMC 122350Z 11014KT 9999 FEW030 04/00 Q1020
EGMC 122320Z 12011KT 9999 FEW025 04/M00 Q1020   
EGMC 122250Z 12011KT 9999 FEW024 05/M00 Q1020   
EGMC 122220Z 13011KT 9999 FEW032 05/M00 Q1020   
EGMC 122150Z 13011KT 9999 FEW042 05/M00 Q1020   
EGMC 122050Z 13007KT 9999 BKN039 05/M01 Q1021   
EGMC 122020Z 13008KT 9999 BKN039 05/M01 Q1021   
EGMC 121950Z 13008KT 9999 BKN039 05/M01 Q1021   
EGMC 121920Z 13010KT 9999 BKN038 06/00 Q1021
EGMC 121850Z 14009KT 9999 SCT038 05/00 Q1021
EGMC 121820Z 13009KT 9999 FEW038 05/M01 Q1021   
EGMC 121750Z 13007KT 9999 FEW040 05/M01 Q1022   
EGMC 121720Z 12009KT CAVOK 04/M02 Q1022 
EGMC 121650Z 12009KT CAVOK 04/M03 Q1022 
EGMC 121620Z 13011KT CAVOK 04/M03 Q1022 
EGMC 121550Z 13011KT 9999 FEW039 06/M02 Q1022   
EGMC 121520Z 13010KT 9999 FEW039 06/M02 Q1022   
EGMC 121450Z 13011KT 9999 FEW039 06/M02 Q1022   
EGMC 121420Z 14011KT 9999 FEW039 07/M02 Q1023   
EGMC 121350Z 15012KT 9999 FEW040 07/M02 Q1023   
EGMC 121320Z 15011KT 9999 FEW040 07/M02 Q1023   
EGMC 121250Z 14012KT 9999 FEW043 07/M01 Q1023   
EGMC 121220Z 14011KT 9999 FEW040 06/M00 Q1023   
EGMC 121150Z 12010KT 9999 FEW040 06/M01 Q1023   
EGMC 121120Z 12011KT 9999 FEW040 07/M00 Q1023   
EGMC 121050Z 12010KT 9999 SCT040 07/M00 Q1024   
EGMC 121020Z 12009KT 9999 SCT039 06/M01 Q1024   
EGMC 120950Z 13010KT 9999 FEW040 06/00 Q1024
EGMC 120920Z 12008KT 9999 FEW045 08/02 Q1024
EGMC 120850Z 13007KT 9999 FEW047 06/01 Q1024
EGMC 120820Z 13009KT 9999 FEW048 06/00 Q1024